Terminal Aerodrome Forecast
Issued by NWS

Home | Current Version | Previous Version | Text Only | Print | Product List | Glossary On
Versions: 1 2 3 4 5 6 7 8 9 10 11 12
000
FTUS46 KSTO 251720
TAFRBL
TAF
KRBL 251720Z 2518/2618 35010KT P6SM SCT250
     FM252000 35011G18KT P6SM SCT250
     FM260100 34008KT P6SM SKC
     FM261700 35011G19KT P6SM SKC=

USA.gov is the U.S. government's official web portal to all federal, state and local government web resources and services.